sensor_id;sensor_type;location;lat;lon;timestamp;pressure;altitude;pressure_sealevel;temperature;humidity
80798;BME280;70202;52.238;10.680;2023-06-26T00:00:53;100085.78;;;22.11;57.90
80798;BME280;70202;52.238;10.680;2023-06-26T00:01:54;100088.72;;;22.10;57.72
80798;BME280;70202;52.238;10.680;2023-06-26T00:02:54;100084.16;;;22.09;57.88
80798;BME280;70202;52.238;10.680;2023-06-26T00:03:55;100079.63;;;22.08;58.01
80798;BME280;70202;52.238;10.680;2023-06-26T00:04:56;100089.13;;;22.05;57.98
80798;BME280;70202;52.238;10.680;2023-06-26T00:05:56;100073.78;;;22.01;58.01
80798;BME280;70202;52.238;10.680;2023-06-26T00:07:00;100092.03;;;22.04;57.90
80798;BME280;70202;52.238;10.680;2023-06-26T00:08:00;100087.50;;;22.03;57.86
80798;BME280;70202;52.238;10.680;2023-06-26T00:09:01;100078.31;;;22.02;57.85
80798;BME280;70202;52.238;10.680;2023-06-26T00:10:03;100079.34;;;22.01;57.99
80798;BME280;70202;52.238;10.680;2023-06-26T00:11:03;100081.94;;;22.03;57.93
80798;BME280;70202;52.238;10.680;2023-06-26T00:12:04;100062.50;;;21.93;57.99
80798;BME280;70202;52.238;10.680;2023-06-26T00:13:04;100073.78;;;22.01;57.82
80798;BME280;70202;52.238;10.680;2023-06-26T00:14:05;100069.22;;;22.00;57.83
80798;BME280;70202;52.238;10.680;2023-06-26T00:15:06;100063.53;;;21.92;57.88
80798;BME280;70202;52.238;10.680;2023-06-26T00:16:08;100068.50;;;21.98;58.04
80798;BME280;70202;52.238;10.680;2023-06-26T00:17:08;100076.97;;;21.96;57.86
80798;BME280;70202;52.238;10.680;2023-06-26T00:18:08;100076.06;;;21.96;57.74
80798;BME280;70202;52.238;10.680;2023-06-26T00:19:09;100076.06;;;21.96;57.71
80798;BME280;70202;52.238;10.680;2023-06-26T00:20:09;100067.91;;;21.94;57.74
80798;BME280;70202;52.238;10.680;2023-06-26T00:21:10;100072.56;;;21.94;57.72
80798;BME280;70202;52.238;10.680;2023-06-26T00:22:10;100071.69;;;21.93;57.85
80798;BME280;70202;52.238;10.680;2023-06-26T00:23:12;100072.72;;;21.92;57.53
80798;BME280;70202;52.238;10.680;2023-06-26T00:24:14;100061.75;;;21.91;57.33
80798;BME280;70202;52.238;10.680;2023-06-26T00:25:14;100066.41;;;21.90;57.37
80798;BME280;70202;52.238;10.680;2023-06-26T00:26:15;100047.97;;;21.80;57.22
80798;BME280;70202;52.238;10.680;2023-06-26T00:27:15;100049.88;;;21.79;57.51
80798;BME280;70202;52.238;10.680;2023-06-26T00:28:15;100070.22;;;21.89;57.55
80798;BME280;70202;52.238;10.680;2023-06-26T00:29:16;100062.91;;;21.88;57.46
80798;BME280;70202;52.238;10.680;2023-06-26T00:30:17;100058.50;;;21.86;57.30
80798;BME280;70202;52.238;10.680;2023-06-26T00:31:17;100035.94;;;21.69;57.57
80798;BME280;70202;52.238;10.680;2023-06-26T00:32:18;100065.97;;;21.85;57.50
80798;BME280;70202;52.238;10.680;2023-06-26T00:33:18;100068.88;;;21.84;57.62
80798;BME280;70202;52.238;10.680;2023-06-26T00:34:19;100067.09;;;21.83;57.58
80798;BME280;70202;52.238;10.680;2023-06-26T00:35:19;100060.97;;;21.79;57.48
80798;BME280;70202;52.238;10.680;2023-06-26T00:36:20;100067.97;;;21.83;57.44
80798;BME280;70202;52.238;10.680;2023-06-26T00:37:22;100068.13;;;21.82;57.53
80798;BME280;70202;52.238;10.680;2023-06-26T00:38:23;100069.16;;;21.81;57.58
80798;BME280;70202;52.238;10.680;2023-06-26T00:39:23;100070.16;;;21.80;57.48
80798;BME280;70202;52.238;10.680;2023-06-26T00:40:25;100069.28;;;21.79;57.57
80798;BME280;70202;52.238;10.680;2023-06-26T00:41:26;100065.16;;;21.74;57.66
80798;BME280;70202;52.238;10.680;2023-06-26T00:42:27;100063.00;;;21.77;57.72
80798;BME280;70202;52.238;10.680;2023-06-26T00:43:27;100067.66;;;21.77;57.53
80798;BME280;70202;52.238;10.680;2023-06-26T00:44:28;100065.91;;;21.76;57.62
80798;BME280;70202;52.238;10.680;2023-06-26T00:45:28;100065.91;;;21.76;57.49
80798;BME280;70202;52.238;10.680;2023-06-26T00:46:28;100060.38;;;21.76;57.37
80798;BME280;70202;52.238;10.680;2023-06-26T00:47:29;100065.03;;;21.75;57.29
80798;BME280;70202;52.238;10.680;2023-06-26T00:48:29;100052.31;;;21.73;57.16
80798;BME280;70202;52.238;10.680;2023-06-26T00:49:30;100061.34;;;21.75;57.00
80798;BME280;70202;52.238;10.680;2023-06-26T00:50:31;100058.59;;;21.75;56.78
80798;BME280;70202;52.238;10.680;2023-06-26T00:51:32;100052.47;;;21.71;56.98
80798;BME280;70202;52.238;10.680;2023-06-26T00:52:33;100058.47;;;21.76;56.79
80798;BME280;70202;52.238;10.680;2023-06-26T00:53:34;100041.63;;;21.68;56.93
80798;BME280;70202;52.238;10.680;2023-06-26T00:54:34;100070.44;;;21.77;56.89
80798;BME280;70202;52.238;10.680;2023-06-26T00:55:35;100060.38;;;21.76;56.92
80798;BME280;70202;52.238;10.680;2023-06-26T00:56:35;100056.72;;;21.75;57.25
80798;BME280;70202;52.238;10.680;2023-06-26T00:57:36;100054.94;;;21.74;56.99
80798;BME280;70202;52.238;10.680;2023-06-26T00:58:36;100046.91;;;21.71;57.32
80798;BME280;70202;52.238;10.680;2023-06-26T00:59:36;100056.84;;;21.74;57.12
80798;BME280;70202;52.238;10.680;2023-06-26T01:00:38;100056.97;;;21.72;57.08
80798;BME280;70202;52.238;10.680;2023-06-26T01:01:38;100043.53;;;21.67;57.29
80798;BME280;70202;52.238;10.680;2023-06-26T01:02:39;100037.44;;;21.53;56.93
80798;BME280;70202;52.238;10.680;2023-06-26T01:03:39;100055.50;;;21.68;57.00
80798;BME280;70202;52.238;10.680;2023-06-26T01:04:40;100051.84;;;21.67;56.81
80798;BME280;70202;52.238;10.680;2023-06-26T01:05:47;100053.75;;;21.67;56.91
80798;BME280;70202;52.238;10.680;2023-06-26T01:06:49;100058.41;;;21.66;56.93
80798;BME280;70202;52.238;10.680;2023-06-26T01:07:52;100047.31;;;21.66;57.05
80798;BME280;70202;52.238;10.680;2023-06-26T01:08:52;100043.66;;;21.66;57.18
80798;BME280;70202;52.238;10.680;2023-06-26T01:09:53;100046.56;;;21.64;56.85
80798;BME280;70202;52.238;10.680;2023-06-26T01:10:53;100045.53;;;21.65;56.89
80798;BME280;70202;52.238;10.680;2023-06-26T01:11:54;100021.41;;;21.56;56.66
80798;BME280;70202;52.238;10.680;2023-06-26T01:12:55;100012.44;;;21.43;56.55
80798;BME280;70202;52.238;10.680;2023-06-26T01:13:56;100038.25;;;21.64;56.59
80798;BME280;70202;52.238;10.680;2023-06-26T01:14:58;100022.59;;;21.54;56.61
80798;BME280;70202;52.238;10.680;2023-06-26T01:15:59;100038.25;;;21.64;56.52
80798;BME280;70202;52.238;10.680;2023-06-26T01:17:01;100034.59;;;21.64;56.62
80798;BME280;70202;52.238;10.680;2023-06-26T01:18:02;100038.25;;;21.64;56.64
80798;BME280;70202;52.238;10.680;2023-06-26T01:19:10;100039.13;;;21.65;56.47
80798;BME280;70202;52.238;10.680;2023-06-26T01:20:11;100034.59;;;21.64;56.61
80798;BME280;70202;52.238;10.680;2023-06-26T01:21:13;100035.63;;;21.63;56.66
80798;BME280;70202;52.238;10.680;2023-06-26T01:22:31;100032.09;;;21.61;56.66
80798;BME280;70202;52.238;10.680;2023-06-26T01:23:58;100035.13;;;21.58;56.67
80798;BME280;70202;52.238;10.680;2023-06-26T01:25:23;100028.72;;;21.57;56.66
80798;BME280;70202;52.238;10.680;2023-06-26T01:26:30;100023.59;;;21.53;56.43
80798;BME280;70202;52.238;10.680;2023-06-26T01:27:35;100009.22;;;21.38;56.75
80798;BME280;70202;52.238;10.680;2023-06-26T01:28:39;100022.72;;;21.52;56.67
80798;BME280;70202;52.238;10.680;2023-06-26T01:29:42;100024.75;;;21.50;56.89
80798;BME280;70202;52.238;10.680;2023-06-26T01:30:45;100031.28;;;21.49;56.92
80798;BME280;70202;52.238;10.680;2023-06-26T01:31:47;100028.53;;;21.49;56.77
80798;BME280;70202;52.238;10.680;2023-06-26T01:32:49;100032.31;;;21.48;56.80
80798;BME280;70202;52.238;10.680;2023-06-26T01:33:50;100029.69;;;21.46;56.87
80798;BME280;70202;52.238;10.680;2023-06-26T01:34:52;100024.41;;;21.43;57.17
80798;BME280;70202;52.238;10.680;2023-06-26T01:35:52;100011.97;;;21.38;56.85
80798;BME280;70202;52.238;10.680;2023-06-26T01:36:53;100028.94;;;21.44;57.22
80798;BME280;70202;52.238;10.680;2023-06-26T01:38:11;100024.41;;;21.43;57.36
80798;BME280;70202;52.238;10.680;2023-06-26T01:39:17;100018.88;;;21.43;57.36
80798;BME280;70202;52.238;10.680;2023-06-26T01:40:17;100026.31;;;21.43;57.45
80798;BME280;70202;52.238;10.680;2023-06-26T01:41:19;100025.44;;;21.42;57.48
80798;BME280;70202;52.238;10.680;2023-06-26T01:42:19;100028.34;;;21.41;57.71
80798;BME280;70202;52.238;10.680;2023-06-26T01:44:44;100022.19;;;21.37;57.92
80798;BME280;70202;52.238;10.680;2023-06-26T01:45:48;100021.44;;;21.35;58.13
80798;BME280;70202;52.238;10.680;2023-06-26T01:46:58;100017.94;;;21.33;58.24
80798;BME280;70202;52.238;10.680;2023-06-26T01:48:01;100018.06;;;21.32;58.12
80798;BME280;70202;52.238;10.680;2023-06-26T01:50:31;100013.91;;;21.26;57.80
80798;BME280;70202;52.238;10.680;2023-06-26T01:51:42;100013.19;;;21.24;58.10
80798;BME280;70202;52.238;10.680;2023-06-26T01:53:16;100002.47;;;21.19;58.19
80798;BME280;70202;52.238;10.680;2023-06-26T01:54:21;100005.25;;;21.19;58.18
80798;BME280;70202;52.238;10.680;2023-06-26T01:55:37;100005.38;;;21.18;58.31
80798;BME280;70202;52.238;10.680;2023-06-26T01:56:42;100009.44;;;21.14;58.46
80798;BME280;70202;52.238;10.680;2023-06-26T01:57:46;100001.53;;;21.09;58.42
80798;BME280;70202;52.238;10.680;2023-06-26T01:58:48;100005.78;;;21.13;58.64
80798;BME280;70202;52.238;10.680;2023-06-26T01:59:50;100009.59;;;21.12;58.79
80798;BME280;70202;52.238;10.680;2023-06-26T02:00:51;100011.59;;;21.10;58.90
80798;BME280;70202;52.238;10.680;2023-06-26T02:01:52;100008.81;;;21.10;58.89
80798;BME280;70202;52.238;10.680;2023-06-26T02:02:52;100008.09;;;21.08;58.92
80798;BME280;70202;52.238;10.680;2023-06-26T02:03:53;100002.66;;;21.07;59.09
80798;BME280;70202;52.238;10.680;2023-06-26T02:04:53;99998.03;;;21.07;59.06
80798;BME280;70202;52.238;10.680;2023-06-26T02:05:53;100003.69;;;21.06;59.26
80798;BME280;70202;52.238;10.680;2023-06-26T02:06:54;100005.59;;;21.05;59.31
80798;BME280;70202;52.238;10.680;2023-06-26T02:07:55;99982.59;;;20.93;59.09
80798;BME280;70202;52.238;10.680;2023-06-26T02:08:55;100003.84;;;21.04;58.87
80798;BME280;70202;52.238;10.680;2023-06-26T02:09:56;100002.09;;;21.03;59.03
80798;BME280;70202;52.238;10.680;2023-06-26T02:10:57;99980.38;;;20.87;59.19
80798;BME280;70202;52.238;10.680;2023-06-26T02:11:57;100004.84;;;21.03;59.15
80798;BME280;70202;52.238;10.680;2023-06-26T02:12:57;100002.09;;;21.03;59.01
80798;BME280;70202;52.238;10.680;2023-06-26T02:13:58;100001.31;;;21.01;58.93
80798;BME280;70202;52.238;10.680;2023-06-26T02:14:58;99999.56;;;21.00;58.63
80798;BME280;70202;52.238;10.680;2023-06-26T02:15:58;100002.34;;;21.00;58.88
80798;BME280;70202;52.238;10.680;2023-06-26T02:16:59;100001.47;;;21.00;59.11
80798;BME280;70202;52.238;10.680;2023-06-26T02:18:00;99997.81;;;20.99;59.15
80798;BME280;70202;52.238;10.680;2023-06-26T02:19:00;99991.53;;;20.97;58.97
80798;BME280;70202;52.238;10.680;2023-06-26T02:20:01;99991.94;;;20.92;59.09
80798;BME280;70202;52.238;10.680;2023-06-26T02:21:03;99991.69;;;20.95;59.28
80798;BME280;70202;52.238;10.680;2023-06-26T02:22:04;99994.56;;;20.94;59.06
80798;BME280;70202;52.238;10.680;2023-06-26T02:23:04;99986.41;;;20.92;59.35
80798;BME280;70202;52.238;10.680;2023-06-26T02:24:05;99987.41;;;20.91;59.44
80798;BME280;70202;52.238;10.680;2023-06-26T02:25:06;99992.06;;;20.91;59.44
80798;BME280;70202;52.238;10.680;2023-06-26T02:26:06;99981.41;;;20.86;59.38
80798;BME280;70202;52.238;10.680;2023-06-26T02:27:07;99987.66;;;20.88;59.54
80798;BME280;70202;52.238;10.680;2023-06-26T02:28:07;99987.81;;;20.87;59.58
80798;BME280;70202;52.238;10.680;2023-06-26T02:29:07;99991.00;;;20.82;59.67
80798;BME280;70202;52.238;10.680;2023-06-26T02:30:08;99989.09;;;20.83;59.99
80798;BME280;70202;52.238;10.680;2023-06-26T02:31:09;99993.00;;;20.80;59.91
80798;BME280;70202;52.238;10.680;2023-06-26T02:32:09;99986.72;;;20.78;60.09
80798;BME280;70202;52.238;10.680;2023-06-26T02:33:10;99985.09;;;20.76;60.09
80798;BME280;70202;52.238;10.680;2023-06-26T02:34:11;99979.06;;;20.70;59.89
80798;BME280;70202;52.238;10.680;2023-06-26T02:35:11;99988.09;;;20.72;60.09
80798;BME280;70202;52.238;10.680;2023-06-26T02:36:12;99981.84;;;20.70;60.19
80798;BME280;70202;52.238;10.680;2023-06-26T02:37:12;99979.22;;;20.69;60.27
80798;BME280;70202;52.238;10.680;2023-06-26T02:38:13;99975.94;;;20.64;60.39
80798;BME280;70202;52.238;10.680;2023-06-26T02:39:13;99979.59;;;20.64;60.25
80798;BME280;70202;52.238;10.680;2023-06-26T02:40:14;99986.13;;;20.63;60.48
80798;BME280;70202;52.238;10.680;2023-06-26T02:41:14;99982.50;;;20.63;60.29
80798;BME280;70202;52.238;10.680;2023-06-26T02:42:15;99973.88;;;20.56;60.46
80798;BME280;70202;52.238;10.680;2023-06-26T02:43:15;99977.38;;;20.58;60.42
80798;BME280;70202;52.238;10.680;2023-06-26T02:44:16;99979.25;;;20.58;60.80
80798;BME280;70202;52.238;10.680;2023-06-26T02:45:16;99956.50;;;20.43;60.64
80798;BME280;70202;52.238;10.680;2023-06-26T02:46:17;99976.75;;;20.55;60.36
80798;BME280;70202;52.238;10.680;2023-06-26T02:47:17;99975.72;;;20.56;60.72
80798;BME280;70202;52.238;10.680;2023-06-26T02:48:17;99970.19;;;20.56;60.57
80798;BME280;70202;52.238;10.680;2023-06-26T02:49:18;99969.31;;;20.55;60.57
80798;BME280;70202;52.238;10.680;2023-06-26T02:50:18;99971.22;;;20.55;60.42
80798;BME280;70202;52.238;10.680;2023-06-26T02:51:18;99968.59;;;20.53;60.28
80798;BME280;70202;52.238;10.680;2023-06-26T02:52:19;99971.09;;;20.56;60.80
80798;BME280;70202;52.238;10.680;2023-06-26T02:53:20;99970.94;;;20.58;60.66
80798;BME280;70202;52.238;10.680;2023-06-26T02:54:20;99953.00;;;20.52;60.38
80798;BME280;70202;52.238;10.680;2023-06-26T02:55:20;99973.56;;;20.59;60.18
80798;BME280;70202;52.238;10.680;2023-06-26T02:56:21;99974.44;;;20.60;60.09
80798;BME280;70202;52.238;10.680;2023-06-26T02:57:21;99967.78;;;20.62;60.27
80798;BME280;70202;52.238;10.680;2023-06-26T02:58:22;99965.75;;;20.64;60.44
80798;BME280;70202;52.238;10.680;2023-06-26T02:59:22;99966.50;;;20.66;59.88
80798;BME280;70202;52.238;10.680;2023-06-26T03:00:22;99960.81;;;20.68;59.83
80798;BME280;70202;52.238;10.680;2023-06-26T03:01:23;99967.13;;;20.70;59.94
80798;BME280;70202;52.238;10.680;2023-06-26T03:02:23;99970.63;;;20.72;59.95
80798;BME280;70202;52.238;10.680;2023-06-26T03:03:24;99960.31;;;20.74;59.79
80798;BME280;70202;52.238;10.680;2023-06-26T03:04:24;99971.09;;;20.77;59.67
80798;BME280;70202;52.238;10.680;2023-06-26T03:05:25;99963.56;;;20.79;59.38
80798;BME280;70202;52.238;10.680;2023-06-26T03:06:25;99961.66;;;20.80;59.51
80798;BME280;70202;52.238;10.680;2023-06-26T03:07:25;99955.97;;;20.81;59.45
80798;BME280;70202;52.238;10.680;2023-06-26T03:08:26;99952.94;;;20.84;59.24
80798;BME280;70202;52.238;10.680;2023-06-26T03:09:26;99962.03;;;20.86;59.62
80798;BME280;70202;52.238;10.680;2023-06-26T03:10:27;99958.09;;;20.89;59.13
80798;BME280;70202;52.238;10.680;2023-06-26T03:11:27;99952.53;;;20.89;59.59
80798;BME280;70202;52.238;10.680;2023-06-26T03:12:27;99958.84;;;20.91;59.23
80798;BME280;70202;52.238;10.680;2023-06-26T03:13:28;99955.94;;;20.92;59.42
80798;BME280;70202;52.238;10.680;2023-06-26T03:14:28;99953.16;;;20.92;59.47
80798;BME280;70202;52.238;10.680;2023-06-26T03:15:30;99954.59;;;20.87;59.32
80798;BME280;70202;52.238;10.680;2023-06-26T03:16:30;99955.78;;;20.94;59.26
80798;BME280;70202;52.238;10.680;2023-06-26T03:17:30;99955.66;;;20.95;59.21
80798;BME280;70202;52.238;10.680;2023-06-26T03:18:31;99951.00;;;20.96;59.28
80798;BME280;70202;52.238;10.680;2023-06-26T03:19:31;99959.16;;;20.97;58.99
80798;BME280;70202;52.238;10.680;2023-06-26T03:20:32;99948.84;;;21.00;59.18
80798;BME280;70202;52.238;10.680;2023-06-26T03:21:32;99944.91;;;21.02;59.20
80798;BME280;70202;52.238;10.680;2023-06-26T03:22:33;99952.22;;;21.03;59.24
80798;BME280;70202;52.238;10.680;2023-06-26T03:23:34;99938.66;;;21.00;59.01
80798;BME280;70202;52.238;10.680;2023-06-26T03:24:34;99943.63;;;21.06;59.29
80798;BME280;70202;52.238;10.680;2023-06-26T03:25:34;99948.19;;;21.07;59.09
80798;BME280;70202;52.238;10.680;2023-06-26T03:26:35;99945.25;;;21.09;59.09
80798;BME280;70202;52.238;10.680;2023-06-26T03:27:35;99943.38;;;21.09;59.33
80798;BME280;70202;52.238;10.680;2023-06-26T03:28:35;99946.00;;;21.11;59.08
80798;BME280;70202;52.238;10.680;2023-06-26T03:29:36;99949.09;;;21.17;58.89
80798;BME280;70202;52.238;10.680;2023-06-26T03:30:36;99949.78;;;21.31;58.64
80798;BME280;70202;52.238;10.680;2023-06-26T03:31:37;99915.03;;;21.27;58.66
80798;BME280;70202;52.238;10.680;2023-06-26T03:32:37;99944.56;;;21.58;58.35
80798;BME280;70202;52.238;10.680;2023-06-26T03:33:38;99927.78;;;21.60;58.19
80798;BME280;70202;52.238;10.680;2023-06-26T03:34:38;99932.22;;;21.72;57.99
80798;BME280;70202;52.238;10.680;2023-06-26T03:35:38;99949.22;;;21.88;57.90
80798;BME280;70202;52.238;10.680;2023-06-26T03:36:39;99922.16;;;21.81;57.81
80798;BME280;70202;52.238;10.680;2023-06-26T03:37:39;99941.94;;;21.97;57.66
80798;BME280;70202;52.238;10.680;2023-06-26T03:38:41;99940.03;;;21.98;57.73
80798;BME280;70202;52.238;10.680;2023-06-26T03:39:41;99940.16;;;21.96;57.68
80798;BME280;70202;52.238;10.680;2023-06-26T03:40:41;99918.66;;;21.79;57.68
80798;BME280;70202;52.238;10.680;2023-06-26T03:41:42;99950.69;;;21.92;57.54
80798;BME280;70202;52.238;10.680;2023-06-26T03:42:42;99941.75;;;21.89;57.61
80798;BME280;70202;52.238;10.680;2023-06-26T03:43:43;99946.44;;;21.88;57.62
80798;BME280;70202;52.238;10.680;2023-06-26T03:44:43;99941.16;;;21.85;57.54
80798;BME280;70202;52.238;10.680;2023-06-26T03:45:43;99943.94;;;21.85;57.46
80798;BME280;70202;52.238;10.680;2023-06-26T03:46:44;99945.84;;;21.85;57.54
80798;BME280;70202;52.238;10.680;2023-06-26T03:47:44;99946.69;;;21.85;57.48
80798;BME280;70202;52.238;10.680;2023-06-26T03:48:47;99942.91;;;21.86;57.51
80798;BME280;70202;52.238;10.680;2023-06-26T03:49:47;99948.34;;;21.88;57.31
80798;BME280;70202;52.238;10.680;2023-06-26T03:50:47;99936.22;;;21.89;57.33
80798;BME280;70202;52.238;10.680;2023-06-26T03:51:48;99937.97;;;21.90;57.20
80798;BME280;70202;52.238;10.680;2023-06-26T03:52:49;99940.47;;;21.93;57.36
80798;BME280;70202;52.238;10.680;2023-06-26T03:53:50;99941.19;;;21.95;57.27
80798;BME280;70202;52.238;10.680;2023-06-26T03:54:51;99938.28;;;21.96;57.43
80798;BME280;70202;52.238;10.680;2023-06-26T03:55:51;99932.59;;;21.98;57.33
80798;BME280;70202;52.238;10.680;2023-06-26T03:56:52;99937.97;;;22.00;57.21
80798;BME280;70202;52.238;10.680;2023-06-26T03:57:52;99934.22;;;22.01;57.25
80798;BME280;70202;52.238;10.680;2023-06-26T03:58:52;99935.09;;;22.01;57.22
80798;BME280;70202;52.238;10.680;2023-06-26T03:59:53;99931.28;;;22.02;57.02
80798;BME280;70202;52.238;10.680;2023-06-26T04:00:53;99933.91;;;22.04;57.07
80798;BME280;70202;52.238;10.680;2023-06-26T04:01:55;99927.47;;;22.03;57.08
80798;BME280;70202;52.238;10.680;2023-06-26T04:02:56;99929.22;;;22.04;56.84
80798;BME280;70202;52.238;10.680;2023-06-26T04:03:57;99923.84;;;22.03;56.93
80798;BME280;70202;52.238;10.680;2023-06-26T04:04:57;99927.91;;;22.08;56.77
80798;BME280;70202;52.238;10.680;2023-06-26T04:05:58;99922.38;;;22.08;57.03
80798;BME280;70202;52.238;10.680;2023-06-26T04:06:58;99917.69;;;22.09;57.22
80798;BME280;70202;52.238;10.680;2023-06-26T04:07:59;99924.88;;;22.11;56.85
80798;BME280;70202;52.238;10.680;2023-06-26T04:08:59;99928.53;;;22.12;57.00
80798;BME280;70202;52.238;10.680;2023-06-26T04:10:00;99924.75;;;22.13;57.10
80798;BME280;70202;52.238;10.680;2023-06-26T04:11:00;99932.06;;;22.14;56.92
80798;BME280;70202;52.238;10.680;2023-06-26T04:12:02;99928.28;;;22.15;56.91
80798;BME280;70202;52.238;10.680;2023-06-26T04:13:02;99922.56;;;22.16;56.82
80798;BME280;70202;52.238;10.680;2023-06-26T04:14:03;99926.22;;;22.17;56.97
80798;BME280;70202;52.238;10.680;2023-06-26T04:15:03;99926.97;;;22.19;56.99
80798;BME280;70202;52.238;10.680;2023-06-26T04:16:04;99923.16;;;22.20;56.94
80798;BME280;70202;52.238;10.680;2023-06-26T04:17:05;99929.47;;;22.22;57.05
80798;BME280;70202;52.238;10.680;2023-06-26T04:18:05;99922.00;;;22.23;56.99
80798;BME280;70202;52.238;10.680;2023-06-26T04:19:06;99919.97;;;22.25;56.71
80798;BME280;70202;52.238;10.680;2023-06-26T04:20:06;99921.72;;;22.26;57.12
80798;BME280;70202;52.238;10.680;2023-06-26T04:21:11;99922.47;;;22.28;57.16
80798;BME280;70202;52.238;10.680;2023-06-26T04:22:12;99922.31;;;22.29;57.05
80798;BME280;70202;52.238;10.680;2023-06-26T04:23:13;99916.47;;;22.32;56.99
80798;BME280;70202;52.238;10.680;2023-06-26T04:24:13;99921.00;;;22.33;56.92
80798;BME280;70202;52.238;10.680;2023-06-26T04:25:13;99907.56;;;22.29;57.00
80798;BME280;70202;52.238;10.680;2023-06-26T04:26:14;99919.69;;;22.37;57.09
80798;BME280;70202;52.238;10.680;2023-06-26T04:27:14;99915.75;;;22.40;56.93
80798;BME280;70202;52.238;10.680;2023-06-26T04:28:15;99908.00;;;22.34;56.64
80798;BME280;70202;52.238;10.680;2023-06-26T04:29:15;99916.34;;;22.43;56.63
80798;BME280;70202;52.238;10.680;2023-06-26T04:30:15;99917.94;;;22.46;56.70
80798;BME280;70202;52.238;10.680;2023-06-26T04:31:16;99918.69;;;22.48;56.66
80798;BME280;70202;52.238;10.680;2023-06-26T04:32:16;99913.84;;;22.50;56.63
80798;BME280;70202;52.238;10.680;2023-06-26T04:33:17;99909.91;;;22.53;56.72
80798;BME280;70202;52.238;10.680;2023-06-26T04:34:17;99883.47;;;22.39;56.73
80798;BME280;70202;52.238;10.680;2023-06-26T04:35:17;99917.81;;;22.57;56.83
80798;BME280;70202;52.238;10.680;2023-06-26T04:36:18;99915.91;;;22.58;56.41
80798;BME280;70202;52.238;10.680;2023-06-26T04:37:18;99921.16;;;22.61;56.71
80798;BME280;70202;52.238;10.680;2023-06-26T04:38:19;99899.53;;;22.55;56.68
80798;BME280;70202;52.238;10.680;2023-06-26T04:39:20;99916.03;;;22.66;56.54
80798;BME280;70202;52.238;10.680;2023-06-26T04:40:21;99918.66;;;22.67;56.58
80798;BME280;70202;52.238;10.680;2023-06-26T04:41:21;99913.69;;;22.71;56.56
80798;BME280;70202;52.238;10.680;2023-06-26T04:42:22;99914.44;;;22.73;56.55
80798;BME280;70202;52.238;10.680;2023-06-26T04:43:22;99913.25;;;22.76;56.44
80798;BME280;70202;52.238;10.680;2023-06-26T04:44:22;99913.13;;;22.77;56.39
80798;BME280;70202;52.238;10.680;2023-06-26T04:45:23;99918.38;;;22.80;56.28
80798;BME280;70202;52.238;10.680;2023-06-26T04:46:23;99912.81;;;22.80;56.31
80798;BME280;70202;52.238;10.680;2023-06-26T04:47:24;99914.28;;;22.84;56.62
80798;BME280;70202;52.238;10.680;2023-06-26T04:48:24;99903.75;;;22.88;56.33
80798;BME280;70202;52.238;10.680;2023-06-26T04:49:27;99910.06;;;22.90;57.09
80798;BME280;70202;52.238;10.680;2023-06-26T04:50:28;99910.78;;;22.92;56.33
80798;BME280;70202;52.238;10.680;2023-06-26T04:51:29;99907.72;;;22.95;56.17
80798;BME280;70202;52.238;10.680;2023-06-26T04:52:29;99901.41;;;22.93;55.88
80798;BME280;70202;52.238;10.680;2023-06-26T04:53:29;99909.03;;;23.01;55.95
80798;BME280;70202;52.238;10.680;2023-06-26T04:54:30;99903.28;;;23.02;55.80
80798;BME280;70202;52.238;10.680;2023-06-26T04:55:30;99898.66;;;23.03;55.85
80798;BME280;70202;52.238;10.680;2023-06-26T04:56:30;99902.72;;;23.08;56.04
80798;BME280;70202;52.238;10.680;2023-06-26T04:57:31;99898.63;;;23.12;56.01
80798;BME280;70202;52.238;10.680;2023-06-26T04:58:31;99895.69;;;23.14;56.01
80798;BME280;70202;52.238;10.680;2023-06-26T04:59:32;99884.13;;;23.09;55.91
80798;BME280;70202;52.238;10.680;2023-06-26T05:00:32;99895.97;;;23.20;55.77
80798;BME280;70202;52.238;10.680;2023-06-26T05:01:35;99890.41;;;23.20;55.62
80798;BME280;70202;52.238;10.680;2023-06-26T05:02:39;99887.00;;;23.27;55.81
80798;BME280;70202;52.238;10.680;2023-06-26T05:03:39;99898.88;;;23.29;55.73
80798;BME280;70202;52.238;10.680;2023-06-26T05:04:40;99894.88;;;23.31;55.49
80798;BME280;70202;52.238;10.680;2023-06-26T05:05:43;99888.16;;;23.34;55.59
80798;BME280;70202;52.238;10.680;2023-06-26T05:06:43;99888.75;;;23.37;55.70
80798;BME280;70202;52.238;10.680;2023-06-26T05:07:44;99893.25;;;23.38;55.57
80798;BME280;70202;52.238;10.680;2023-06-26T05:08:44;99901.31;;;23.41;55.61
80798;BME280;70202;52.238;10.680;2023-06-26T05:09:44;99894.56;;;23.44;55.52
80798;BME280;70202;52.238;10.680;2023-06-26T05:10:45;99893.38;;;23.47;55.50
80798;BME280;70202;52.238;10.680;2023-06-26T05:11:45;99894.09;;;23.49;55.75
80798;BME280;70202;52.238;10.680;2023-06-26T05:12:46;99901.09;;;23.53;55.49
80798;BME280;70202;52.238;10.680;2023-06-26T05:13:46;99899.94;;;23.55;55.70
80798;BME280;70202;52.238;10.680;2023-06-26T05:14:47;99898.75;;;23.58;55.48
80798;BME280;70202;52.238;10.680;2023-06-26T05:15:47;99892.00;;;23.60;55.49
80798;BME280;70202;52.238;10.680;2023-06-26T05:16:47;99891.69;;;23.63;55.49
80798;BME280;70202;52.238;10.680;2023-06-26T05:17:48;99896.09;;;23.66;55.46
80798;BME280;70202;52.238;10.680;2023-06-26T05:18:48;99886.56;;;23.68;55.53
80798;BME280;70202;52.238;10.680;2023-06-26T05:19:48;99899.31;;;23.71;55.32
80798;BME280;70202;52.238;10.680;2023-06-26T05:20:49;99887.00;;;23.74;55.26
80798;BME280;70202;52.238;10.680;2023-06-26T05:21:50;99891.38;;;23.76;54.64